Time;durP1;ratioP1;P1;durP2;ratioP2;P2;SDS_P1;SDS_P2;PMS_P1;PMS_P2;Temp;Humidity;BMP_temperature;BMP_pressure;BME280_temperature;BME280_humidity;BME280_pressure;Samples;Min_cycle;Max_cycle;Signal;HPM_P1;HPM_P2
2022/12/01 00:03:08;;;;;;;54.17;24.83;;;;;;;0.80;100.00;101930.90;3589865;80;99086;-88
2022/12/01 00:08:08;;;;;;;50.30;24.43;;;;;;;0.79;100.00;101923.33;3557925;81;33204;-88
2022/12/01 00:13:09;;;;;;;53.53;24.93;;;;;;;0.82;100.00;101923.32;3557648;81;99021;-87
2022/12/01 00:18:10;;;;;;;51.10;25.57;;;;;;;0.79;100.00;101921.15;3590234;80;31522;-87
2022/12/01 00:23:11;;;;;;;48.30;24.17;;;;;;;0.78;100.00;101914.11;3598425;80;99082;-85
2022/12/01 00:28:11;;;;;;;47.40;22.40;;;;;;;0.75;100.00;101920.07;3593510;80;31620;-87
2022/12/01 00:33:12;;;;;;;50.55;21.57;;;;;;;0.77;100.00;101914.64;3592477;80;98645;-87
2022/12/01 00:38:13;;;;;;;50.77;24.07;;;;;;;0.80;100.00;101914.64;3590993;80;25896;-87
2022/12/01 00:43:14;;;;;;;47.37;22.33;;;;;;;0.77;100.00;101909.79;3593746;79;98983;-88
2022/12/01 00:48:15;;;;;;;46.57;22.97;;;;;;;0.81;100.00;101906.77;3593402;79;31583;-86
2022/12/01 00:53:15;;;;;;;48.27;22.83;;;;;;;0.82;100.00;101905.70;3581297;79;98966;-86
2022/12/01 00:58:16;;;;;;;49.23;22.50;;;;;;;0.85;100.00;101908.67;3590777;79;29814;-87
2022/12/01 01:03:17;;;;;;;51.90;23.23;;;;;;;0.84;100.00;101907.05;3615771;79;99053;-87
2022/12/01 01:08:18;;;;;;;52.37;24.70;;;;;;;0.80;100.00;101905.98;3616481;79;34774;-86
2022/12/01 01:13:19;;;;;;;52.33;24.70;;;;;;;0.78;100.00;101899.21;3610638;79;108720;-89
2022/12/01 01:18:19;;;;;;;52.03;23.13;;;;;;;0.73;100.00;101896.52;3622391;79;35022;-87
2022/12/01 01:23:20;;;;;;;50.70;24.53;;;;;;;0.74;100.00;101900.84;3612255;79;98951;-87
2022/12/01 01:28:21;;;;;;;47.87;22.47;;;;;;;0.78;100.00;101901.92;3632131;79;35371;-87
2022/12/01 01:33:22;;;;;;;45.90;21.33;;;;;;;0.80;100.00;101896.49;3614340;79;98967;-88
2022/12/01 01:38:22;;;;;;;45.80;21.33;;;;;;;0.81;100.00;101895.93;3607683;79;35530;-88
2022/12/01 01:43:46;;;;;;;48.10;22.02;;;;;;;0.81;100.00;101887.80;3607085;79;99066;-87
2022/12/01 01:49:07;;;;;;;52.35;21.68;;;;;;;0.82;100.00;101895.66;3623853;79;34044;-87
2022/12/01 01:54:19;;;;;;;47.43;21.63;;;;;;;0.86;100.00;101892.67;3613477;79;99066;-86
2022/12/01 01:59:28;;;;;;;44.87;20.07;;;;;;;0.88;100.00;101896.47;3619027;79;31023;-87
2022/12/01 02:04:29;;;;;;;47.47;22.97;;;;;;;0.88;100.00;101894.55;3617278;79;99072;-87
2022/12/01 02:09:30;;;;;;;56.03;24.57;;;;;;;0.89;100.00;101881.26;3619112;79;33705;-87
2022/12/01 02:14:45;;;;;;;50.03;23.67;;;;;;;0.87;100.00;101888.05;3623299;79;99236;-86
2022/12/01 02:20:21;;;;;;;46.00;21.77;;;;;;;0.84;100.00;101893.50;3623965;79;32317;-87
2022/12/01 02:25:44;;;;;;;54.45;22.70;;;;;;;0.83;100.00;101902.70;3618799;79;99050;-87
2022/12/01 02:31:02;;;;;;;52.40;22.80;;;;;;;0.85;100.00;101901.08;3622034;79;25912;-88
2022/12/01 02:36:11;;;;;;;46.67;22.20;;;;;;;0.85;100.00;101905.14;3604269;78;99049;-87
2022/12/01 02:41:29;;;;;;;47.13;21.57;;;;;;;0.85;100.00;101903.25;3607571;79;33585;-86
2022/12/01 02:46:47;;;;;;;47.25;20.62;;;;;;;0.82;100.00;101900.28;3613420;79;98853;-86
2022/12/01 02:51:51;;;;;;;44.05;20.23;;;;;;;0.81;100.00;101895.40;3607763;79;35435;-86
2022/12/01 02:56:52;;;;;;;43.90;20.87;;;;;;;0.79;100.00;101897.59;3607621;79;98999;-86
2022/12/01 03:02:12;;;;;;;45.47;21.17;;;;;;;0.80;100.00;101899.20;3616503;78;32506;-86
2022/12/01 03:07:55;;;;;;;47.83;21.82;;;;;;;0.81;100.00;101901.35;3599901;79;98994;-87
2022/12/01 03:13:37;;;;;;;44.33;21.52;;;;;;;0.82;100.00;101902.44;3628086;79;33513;-87
2022/12/01 03:18:47;;;;;;;47.23;21.03;;;;;;;0.84;100.00;101888.62;3620455;79;29126;-86
2022/12/01 03:23:52;;;;;;;45.83;21.37;;;;;;;0.82;100.00;101886.73;3608304;79;99250;-87
2022/12/01 03:29:02;;;;;;;44.83;20.88;;;;;;;0.81;100.00;101889.98;3620360;79;32956;-86
2022/12/01 03:34:23;;;;;;;46.80;20.37;;;;;;;0.84;100.00;101884.55;3602796;78;99125;-87
2022/12/01 03:39:32;;;;;;;48.07;22.30;;;;;;;0.85;100.00;101887.52;3581603;79;30071;-86
2022/12/01 03:44:44;;;;;;;44.53;21.82;;;;;;;0.86;100.00;101881.01;3612485;79;99145;-88
2022/12/01 03:49:46;;;;;;;45.45;21.57;;;;;;;0.85;100.00;101876.69;3619488;79;32977;-87
2022/12/01 03:55:13;;;;;;;46.70;22.10;;;;;;;0.85;100.00;101877.50;3606139;79;99075;-87
2022/12/01 04:00:15;;;;;;;42.58;19.73;;;;;;;0.89;100.00;101871.77;3610922;79;26165;-87
2022/12/01 04:05:16;;;;;;;45.53;21.17;;;;;;;0.84;100.00;101865.58;3600306;79;98926;-87
2022/12/01 04:10:17;;;;;;;44.23;21.00;;;;;;;0.85;100.00;101872.61;3620715;79;33345;-86
2022/12/01 04:15:18;;;;;;;44.50;21.50;;;;;;;0.85;100.00;101866.66;3614289;79;99260;-87
2022/12/01 04:20:19;;;;;;;45.77;20.20;;;;;;;0.86;100.00;101867.45;3625104;79;33022;-87
2022/12/01 04:25:20;;;;;;;42.03;21.80;;;;;;;0.88;100.00;101869.37;3603630;79;99032;-87
2022/12/01 04:30:21;;;;;;;43.53;19.33;;;;;;;0.90;100.00;101868.53;3613054;79;32404;-86
2022/12/01 04:35:21;;;;;;;46.37;20.43;;;;;;;0.91;100.00;101864.73;3618887;79;99108;-88
2022/12/01 04:40:22;;;;;;;46.40;21.43;;;;;;;0.89;100.00;101870.42;3627613;79;33285;-87
2022/12/01 04:45:23;;;;;;;40.78;20.12;;;;;;;0.87;100.00;101873.14;3606405;79;98859;-86
2022/12/01 04:50:24;;;;;;;42.90;20.03;;;;;;;0.86;100.00;101873.70;3624846;79;27335;-87
2022/12/01 04:55:25;;;;;;;47.27;21.53;;;;;;;0.88;100.00;101880.20;3608302;79;98977;-88
2022/12/01 05:00:26;;;;;;;44.97;20.13;;;;;;;0.87;100.00;101872.61;3624483;79;25772;-87
2022/12/01 05:05:26;;;;;;;46.40;21.17;;;;;;;0.89;100.00;101877.20;3600277;80;99160;-85
2022/12/01 05:10:27;;;;;;;43.80;20.33;;;;;;;0.91;100.00;101885.88;3616463;80;26171;-87
2022/12/01 05:15:28;;;;;;;43.70;20.70;;;;;;;0.93;100.00;101877.48;3616196;79;99020;-86
2022/12/01 05:25:47;;;;;;;43.48;20.20;;;;;;;0.93;100.00;101882.90;3613255;79;98886;-88
2022/12/01 05:30:49;;;;;;;47.17;20.20;;;;;;;0.91;100.00;101879.10;3616228;80;25935;-87
2022/12/01 05:35:51;;;;;;;47.90;21.60;;;;;;;0.91;100.00;101879.63;3611745;78;98921;-86
2022/12/01 05:40:54;;;;;;;49.70;24.10;;;;;;;0.91;100.00;101880.45;3618446;79;27474;-86
2022/12/01 05:45:56;;;;;;;51.07;22.33;;;;;;;0.93;100.00;101880.98;3615085;79;98939;-87
2022/12/01 05:50:56;;;;;;;47.53;21.47;;;;;;;0.98;100.00;101884.20;3610901;80;27485;-86
2022/12/01 05:55:57;;;;;;;45.40;21.97;;;;;;;0.99;100.00;101888.56;3610769;79;99215;-86
2022/12/01 06:00:58;;;;;;;49.20;21.70;;;;;;;1.00;100.00;101893.68;3617758;80;26132;-85
2022/12/01 06:05:59;;;;;;;45.20;21.77;;;;;;;0.99;100.00;101893.42;3612409;81;98910;-87
2022/12/01 06:11:00;;;;;;;46.67;22.97;;;;;;;1.00;100.00;101890.17;3629908;80;26352;-88
2022/12/01 06:16:05;;;;;;;46.87;21.80;;;;;;;0.98;100.00;101893.16;3620773;80;98921;-87
2022/12/01 06:21:06;;;;;;;48.30;23.03;;;;;;;0.99;100.00;101906.97;3619824;79;29711;-87
2022/12/01 06:26:07;;;;;;;54.20;25.77;;;;;;;1.02;100.00;101903.72;3575978;80;99139;-86
2022/12/01 06:31:08;;;;;;;57.10;27.40;;;;;;;1.03;100.00;101904.52;3549735;82;26144;-89
2022/12/01 06:36:09;;;;;;;47.00;22.93;;;;;;;1.03;100.00;101911.29;3587022;81;99046;-87
2022/12/01 06:41:10;;;;;;;44.20;22.97;;;;;;;1.03;100.00;101910.76;3625084;80;26473;-86
2022/12/01 06:46:11;;;;;;;44.90;21.13;;;;;;;1.06;100.00;101924.30;3623654;80;115174;-87
2022/12/01 06:51:12;;;;;;;46.70;23.00;;;;;;;1.05;100.00;101924.83;3618159;81;25889;-86
2022/12/01 06:56:12;;;;;;;49.37;23.27;;;;;;;1.12;100.00;101927.26;3574929;81;99102;-86
2022/12/01 07:01:13;;;;;;;47.77;24.10;;;;;;;1.12;100.00;101934.86;3551827;81;26258;-88
2022/12/01 07:06:15;;;;;;;43.90;22.10;;;;;;;1.13;100.00;101934.30;3532610;81;98963;-87
2022/12/01 07:11:16;;;;;;;49.90;23.33;;;;;;;1.16;100.00;101927.77;3536400;82;26146;-86
2022/12/01 07:16:16;;;;;;;57.07;30.40;;;;;;;1.16;100.00;101933.19;3573426;80;99059;-85
2022/12/01 07:21:17;;;;;;;56.80;32.07;;;;;;;1.20;100.00;101928.05;3603763;80;33682;-86
2022/12/01 07:26:18;;;;;;;54.23;28.43;;;;;;;1.21;100.00;101931.02;3551306;80;99065;-85
2022/12/01 07:31:19;;;;;;;106.97;56.83;;;;;;;1.27;100.00;101931.26;3528981;81;34170;-86
2022/12/01 07:36:20;;;;;;;60.08;27.50;;;;;;;1.30;100.00;101942.36;3513556;81;99274;-86
2022/12/01 07:41:21;;;;;;;58.27;28.13;;;;;;;1.32;100.00;101946.16;3519647;81;33973;-86
2022/12/01 07:46:25;;;;;;;51.62;27.02;;;;;;;1.31;100.00;101940.47;3521092;81;99129;-86
2022/12/01 07:51:27;;;;;;;44.67;23.20;;;;;;;1.33;100.00;101937.75;3527426;81;31912;-86
2022/12/01 07:56:28;;;;;;;103.07;36.40;;;;;;;1.37;100.00;101944.78;3522834;81;98700;-86
2022/12/01 08:01:28;;;;;;;47.80;22.87;;;;;;;1.43;100.00;101948.52;3502920;81;31688;-87
2022/12/01 08:06:29;;;;;;;49.00;23.23;;;;;;;1.47;100.00;101944.70;3485915;82;98874;-86
2022/12/01 08:11:30;;;;;;;45.80;23.23;;;;;;;1.51;100.00;101953.38;3487514;82;31723;-86
2022/12/01 08:16:31;;;;;;;44.77;23.03;;;;;;;1.55;100.00;101959.88;3482953;82;99037;-86
2022/12/01 08:21:31;;;;;;;43.77;22.07;;;;;;;1.58;100.00;101955.79;3483597;82;30088;-86
2022/12/01 08:26:32;;;;;;;42.97;21.00;;;;;;;1.61;100.00;101956.57;3482112;80;98846;-86
2022/12/01 08:31:36;;;;;;;50.83;25.10;;;;;;;1.61;100.00;101953.86;3482847;82;28797;-87
2022/12/01 08:36:36;;;;;;;49.90;25.70;;;;;;;1.62;100.00;101956.83;3481827;82;99033;-87
2022/12/01 08:41:37;;;;;;;49.43;24.07;;;;;;;1.64;100.00;101956.81;3491238;82;34882;-86
2022/12/01 08:46:37;;;;;;;49.50;24.90;;;;;;;1.66;100.00;101951.11;3483288;81;98725;-85
2022/12/01 08:51:38;;;;;;;46.97;23.30;;;;;;;1.71;100.00;101955.16;3487556;82;35198;-85
2022/12/01 08:56:43;;;;;;;63.10;26.97;;;;;;;1.71;100.00;101955.16;3478852;82;98900;-86
2022/12/01 09:01:52;;;;;;;46.80;23.23;;;;;;;1.68;100.00;101955.17;3495486;82;26731;-87
2022/12/01 09:06:56;;;;;;;45.43;25.67;;;;;;;1.68;100.00;101951.09;3488071;81;99000;-87
2022/12/01 09:11:57;;;;;;;47.63;23.90;;;;;;;1.72;100.00;101949.98;3500913;82;26572;-87
2022/12/01 09:16:58;;;;;;;54.13;27.40;;;;;;;1.78;100.00;101948.33;3490974;82;98930;-87
2022/12/01 09:21:59;;;;;;;56.40;26.37;;;;;;;1.80;100.00;101946.69;3492557;82;35775;-87
2022/12/01 09:27:00;;;;;;;51.73;25.87;;;;;;;1.82;100.00;101941.78;3489424;80;98847;-87
2022/12/01 09:32:01;;;;;;;49.47;25.33;;;;;;;1.88;100.00;101933.86;3495854;82;34882;-86
2022/12/01 09:37:01;;;;;;;50.27;25.77;;;;;;;1.94;100.00;101932.73;3484432;82;98972;-87
2022/12/01 09:42:07;;;;;;;51.20;24.80;;;;;;;1.99;100.00;101928.62;3499201;82;34847;-87
2022/12/01 09:47:33;;;;;;;48.83;24.10;;;;;;;2.01;100.00;101934.03;3489414;82;98892;-87
2022/12/01 09:53:02;;;;;;;46.80;20.87;;;;;;;2.04;100.00;101923.15;3527191;80;32542;-87
2022/12/01 09:58:04;;;;;;;49.13;22.07;;;;;;;2.09;100.00;101919.83;3488496;81;98778;-87
2022/12/01 10:03:16;;;;;;;51.95;24.90;;;;;;;2.22;100.00;101910.22;3505352;82;29860;-87
2022/12/01 10:08:22;;;;;;;52.90;24.90;;;;;;;2.26;100.00;101910.73;3505871;81;27852;-87
2022/12/01 10:13:28;;;;;;;48.83;24.23;;;;;;;2.28;100.00;101911.79;3493042;81;99070;-87
2022/12/01 10:18:49;;;;;;;47.17;23.53;;;;;;;2.34;100.00;101906.03;3505139;80;25867;-87
2022/12/01 10:24:23;;;;;;;42.67;22.85;;;;;;;2.39;100.00;101909.23;3497651;81;98957;-87
2022/12/01 10:29:47;;;;;;;45.20;22.97;;;;;;;2.46;100.00;101894.22;3506086;81;26898;-87
2022/12/01 10:34:48;;;;;;;43.60;22.43;;;;;;;2.50;100.00;101895.27;3418923;82;99089;-87
2022/12/01 10:39:52;;;;;;;42.43;22.22;;;;;;;2.49;100.00;101896.38;3516384;82;34863;-88
2022/12/01 10:44:56;;;;;;;43.15;23.27;;;;;;;2.56;100.00;101885.17;3502493;82;99224;-87
2022/12/01 10:49:58;;;;;;;44.60;22.13;;;;;;;2.63;100.00;101889.70;3482351;81;25918;-86
2022/12/01 10:55:00;;;;;;;43.25;21.40;;;;;;;2.61;100.00;101881.02;3499091;81;99227;-87
2022/12/01 11:00:09;;;;;;;47.77;24.17;;;;;;;2.64;100.00;101877.73;3508648;81;26948;-87
2022/12/01 11:05:27;;;;;;;46.80;23.23;;;;;;;2.71;100.00;101879.55;3498352;81;99144;-87
2022/12/01 11:10:32;;;;;;;43.47;21.60;;;;;;;2.75;100.00;101877.34;3504390;81;26524;-88
2022/12/01 11:15:40;;;;;;;44.13;22.53;;;;;;;2.76;99.58;101872.16;3499288;81;99136;-87
2022/12/01 11:20:41;;;;;;;44.13;22.57;;;;;;;2.79;98.99;101875.63;3505365;80;26207;-87
2022/12/01 11:25:57;;;;;;;40.97;21.10;;;;;;;2.76;98.32;101877.59;3498560;81;98961;-86
2022/12/01 11:31:07;;;;;;;42.30;21.97;;;;;;;2.77;98.81;101875.66;3517609;80;25879;-86
2022/12/01 11:36:08;;;;;;;49.15;22.85;;;;;;;2.78;98.74;101869.95;3477436;82;98908;-87
2022/12/01 11:41:20;;;;;;;49.70;25.20;;;;;;;2.79;99.01;101872.92;3499345;83;35444;-86
2022/12/01 11:46:35;;;;;;;46.15;24.15;;;;;;;2.83;99.18;101869.89;3494984;82;98900;-88
2022/12/01 11:51:36;;;;;;;44.17;22.30;;;;;;;2.89;99.15;101872.80;3514834;81;27850;-86
2022/12/01 11:56:37;;;;;;;47.63;22.43;;;;;;;2.85;98.59;101866.31;3467237;81;98687;-86
2022/12/01 12:01:58;;;;;;;46.10;23.00;;;;;;;2.86;98.80;101863.05;3483373;82;34947;-86
2022/12/01 12:07:30;;;;;;;42.00;22.07;;;;;;;2.85;98.71;101852.72;3508318;82;98757;-86
2022/12/01 12:12:48;;;;;;;48.33;22.67;;;;;;;2.82;98.80;101856.58;3528388;82;26446;-86
2022/12/01 12:18:02;;;;;;;43.13;22.10;;;;;;;2.83;99.13;101856.83;3497788;82;98759;-86
2022/12/01 12:23:24;;;;;;;44.60;22.10;;;;;;;2.82;99.25;101844.34;3516741;82;26283;-87
2022/12/01 12:28:50;;;;;;;41.83;22.97;;;;;;;2.89;98.62;101851.62;3518832;82;26967;-86
2022/12/01 12:34:36;;;;;;;43.75;22.62;;;;;;;2.84;98.52;101849.75;3519785;81;98912;-86
2022/12/01 12:39:42;;;;;;;46.10;22.80;;;;;;;2.87;98.89;101856.52;3612059;80;26487;-87
2022/12/01 12:45:11;;;;;;;45.17;24.15;;;;;;;2.83;98.32;101850.86;3600661;81;98906;-86
2022/12/01 12:50:33;;;;;;;46.00;22.25;;;;;;;2.79;98.54;101857.97;3607118;81;31799;-86
2022/12/01 12:55:38;;;;;;;43.43;23.50;;;;;;;2.80;98.69;101862.86;3606115;80;98946;-86
2022/12/01 13:00:57;;;;;;;46.93;23.50;;;;;;;2.77;99.00;101860.17;3605530;80;35655;-86
2022/12/01 13:06:12;;;;;;;46.67;24.37;;;;;;;2.81;99.42;101857.14;3587993;80;98890;-86
2022/12/01 13:16:55;;;;;;;54.33;27.13;;;;;;;2.85;99.01;101851.36;3744097;76;35328;-88
2022/12/01 13:21:58;;;;;;;53.00;25.93;;;;;;;2.75;99.03;101852.05;3661454;78;25929;-86
2022/12/01 13:27:06;;;;;;;50.10;26.52;;;;;;;2.70;99.23;101848.03;3648157;77;98822;-85
2022/12/01 13:32:11;;;;;;;56.40;26.87;;;;;;;2.67;99.29;101842.63;3651984;78;31697;-87
2022/12/01 13:37:12;;;;;;;52.60;25.90;;;;;;;2.66;99.65;101840.19;3666585;77;98495;-85
2022/12/01 13:42:25;;;;;;;49.40;24.63;;;;;;;2.65;99.79;101839.94;3674255;78;33980;-85
2022/12/01 13:47:49;;;;;;;50.70;25.68;;;;;;;2.64;99.83;101839.68;3588453;78;99118;-85
2022/12/01 13:52:50;;;;;;;51.98;26.50;;;;;;;2.59;100.00;101837.02;3579633;81;32177;-85
2022/12/01 13:58:02;;;;;;;49.03;24.00;;;;;;;2.64;100.00;101847.84;3653016;78;99012;-86
2022/12/01 14:03:18;;;;;;;50.23;25.30;;;;;;;2.65;100.00;101846.19;3699539;78;31656;-86
2022/12/01 14:08:28;;;;;;;52.37;26.07;;;;;;;2.63;100.00;101845.66;3696462;80;26482;-85
2022/12/01 14:13:32;;;;;;;50.00;24.92;;;;;;;2.63;100.00;101836.14;3685470;79;98691;-85
2022/12/01 14:18:38;;;;;;;47.62;23.25;;;;;;;2.62;100.00;101844.61;3680974;78;31650;-86
2022/12/01 14:24:04;;;;;;;44.88;23.87;;;;;;;2.62;100.00;101844.61;3674442;79;98661;-86
2022/12/01 14:29:09;;;;;;;41.73;22.85;;;;;;;2.60;100.00;101844.89;3677178;78;31921;-85
2022/12/01 14:34:23;;;;;;;44.10;21.93;;;;;;;2.59;100.00;101835.12;3681979;78;99202;-85
2022/12/01 14:39:35;;;;;;;54.15;25.02;;;;;;;2.58;100.00;101844.92;3700682;78;31695;-84
2022/12/01 14:44:53;;;;;;;54.00;28.07;;;;;;;2.55;100.00;101847.66;3678527;78;99074;-85
2022/12/01 14:50:23;;;;;;;55.83;27.45;;;;;;;2.57;100.00;101841.95;3676884;78;29796;-86
2022/12/01 14:55:36;;;;;;;55.60;28.07;;;;;;;2.53;100.00;101847.69;3674005;78;99061;-85
2022/12/01 15:00:39;;;;;;;58.48;31.73;;;;;;;2.51;100.00;101847.98;3680834;78;31587;-85
2022/12/01 15:05:42;;;;;;;49.65;27.35;;;;;;;2.50;100.00;101839.56;3693514;78;98896;-86
2022/12/01 15:10:54;;;;;;;42.38;21.87;;;;;;;2.48;100.00;101840.42;3722465;79;32287;-84
2022/12/01 15:16:03;;;;;;;49.63;25.72;;;;;;;2.45;100.00;101834.72;3658572;79;99109;-87
2022/12/01 15:21:29;;;;;;;50.70;26.57;;;;;;;2.45;100.00;101840.98;3649976;80;30746;-88
2022/12/01 15:26:34;;;;;;;45.52;24.37;;;;;;;2.45;100.00;101846.95;3617933;80;98919;-86
2022/12/01 15:31:35;;;;;;;41.68;20.27;;;;;;;2.45;100.00;101836.08;3601688;79;31633;-87
2022/12/01 15:36:36;;;;;;;39.63;20.40;;;;;;;2.45;100.00;101844.23;3604166;80;98816;-87
2022/12/01 15:41:40;;;;;;;45.70;23.47;;;;;;;2.42;100.00;101842.11;3619444;81;34843;-88
2022/12/01 15:46:42;;;;;;;53.33;25.32;;;;;;;2.43;100.00;101845.08;3609446;81;98945;-87
2022/12/01 15:51:44;;;;;;;50.55;25.55;;;;;;;2.42;100.00;101844.83;3589622;81;31680;-87
2022/12/01 15:56:49;;;;;;;35.50;17.02;;;;;;;2.41;100.00;101848.08;3610757;80;98891;-86
2022/12/01 16:01:49;;;;;;;32.10;17.65;;;;;;;2.40;100.00;101838.88;3622042;80;31642;-86
2022/12/01 16:07:01;;;;;;;43.10;21.53;;;;;;;2.38;100.00;101841.88;3628894;79;98934;-88
2022/12/01 16:12:22;;;;;;;42.15;22.00;;;;;;;2.38;99.86;101845.95;3632922;80;31779;-87
2022/12/01 16:17:23;;;;;;;41.57;23.10;;;;;;;2.39;99.97;101842.67;3705149;79;98700;-87
2022/12/01 16:22:24;;;;;;;40.47;19.67;;;;;;;2.41;100.00;101845.93;3711733;79;25883;-85
2022/12/01 16:27:28;;;;;;;37.60;19.23;;;;;;;2.39;99.47;101846.22;3678287;79;99249;-87
2022/12/01 16:32:41;;;;;;;39.88;20.17;;;;;;;2.37;99.36;101839.45;3673612;79;31643;-87
2022/12/01 16:37:42;;;;;;;30.32;16.45;;;;;;;2.41;99.35;101844.58;3671177;78;98759;-85
2022/12/01 16:42:43;;;;;;;30.27;15.20;;;;;;;2.42;99.00;101844.83;3684959;79;35892;-85
2022/12/01 16:47:46;;;;;;;26.73;14.60;;;;;;;2.39;98.66;101836.70;3672475;78;98585;-85
2022/12/01 16:52:47;;;;;;;29.15;15.88;;;;;;;2.38;98.25;101846.49;3693921;78;31805;-86
2022/12/01 16:57:48;;;;;;;27.10;13.77;;;;;;;2.37;97.62;101844.88;3724045;78;98623;-86
2022/12/01 17:02:49;;;;;;;39.83;21.27;;;;;;;2.32;97.39;101837.60;3741432;79;35986;-86
2022/12/01 17:07:50;;;;;;;30.90;17.50;;;;;;;2.33;97.24;101833.78;3673896;79;98699;-86
2022/12/01 17:12:51;;;;;;;33.97;18.13;;;;;;;2.34;97.25;101840.83;3680378;80;34795;-86
2022/12/01 17:17:52;;;;;;;33.73;18.33;;;;;;;2.35;97.35;101843.80;3623931;79;98752;-86
2022/12/01 17:22:53;;;;;;;31.40;15.43;;;;;;;2.35;97.20;101845.16;3622135;80;34861;-85
2022/12/01 17:27:54;;;;;;;31.53;16.87;;;;;;;2.33;96.84;101847.91;3624068;80;99075;-86
2022/12/01 17:32:54;;;;;;;33.17;18.50;;;;;;;2.32;96.63;101849.83;3619001;80;35600;-87
2022/12/01 17:37:55;;;;;;;36.80;20.75;;;;;;;2.32;96.68;101849.01;3602780;80;98568;-86
2022/12/01 17:42:56;;;;;;;43.80;23.33;;;;;;;2.29;96.56;101852.31;3618628;80;25881;-87
2022/12/01 17:47:57;;;;;;;23.60;13.93;;;;;;;2.28;96.64;101854.20;3543207;81;99052;-86
2022/12/01 17:52:58;;;;;;;21.97;12.90;;;;;;;2.28;96.25;101847.42;3561285;81;32510;-86
2022/12/01 17:57:58;;;;;;;26.47;15.60;;;;;;;2.27;95.46;101843.63;3548165;81;98462;-85
2022/12/01 18:02:59;;;;;;;25.50;14.47;;;;;;;2.24;95.69;101842.29;3560162;83;32455;-85
2022/12/01 18:08:00;;;;;;;22.90;14.17;;;;;;;2.21;95.27;101857.82;3550860;83;98655;-83
2022/12/01 18:13:01;;;;;;;59.20;27.93;;;;;;;2.19;94.94;101850.48;3554838;82;33093;-87
2022/12/01 18:18:02;;;;;;;48.37;25.60;;;;;;;2.17;94.69;101854.58;3636226;80;98517;-85
2022/12/01 18:23:03;;;;;;;33.60;19.70;;;;;;;2.18;95.11;101848.88;3647447;80;32470;-86
2022/12/01 18:28:05;;;;;;;25.85;15.55;;;;;;;2.18;95.28;101855.66;3652426;80;98683;-86
2022/12/01 18:33:09;;;;;;;27.67;15.13;;;;;;;2.21;94.95;101852.92;3656802;80;32521;-85
2022/12/01 18:38:08;;;;;;;24.57;12.65;;;;;;;2.19;94.94;101857.28;3643298;80;33045;-85
2022/12/01 18:43:09;;;;;;;23.37;12.53;;;;;;;2.17;94.48;101851.33;3650757;80;98886;-86
2022/12/01 18:48:10;;;;;;;32.30;16.50;;;;;;;2.16;94.38;101851.61;3659374;80;25973;-86
2022/12/01 18:53:11;;;;;;;28.33;15.37;;;;;;;2.17;94.48;101857.30;3643946;80;99035;-86
2022/12/01 18:58:12;;;;;;;38.80;18.30;;;;;;;2.16;94.50;101852.44;3657173;80;26532;-84
2022/12/01 19:03:13;;;;;;;30.43;17.37;;;;;;;2.16;94.50;101852.44;3647850;80;98849;-86
2022/12/01 19:08:14;;;;;;;26.77;14.93;;;;;;;2.16;94.28;101844.28;3606346;80;25895;-86
2022/12/01 19:13:14;;;;;;;23.63;14.47;;;;;;;2.16;94.30;101838.03;3605928;80;99092;-86
2022/12/01 19:18:15;;;;;;;29.35;14.53;;;;;;;2.16;94.20;101842.11;3612872;80;26359;-86
2022/12/01 19:23:16;;;;;;;22.90;12.03;;;;;;;2.14;93.93;101841.03;3595155;81;99114;-87
2022/12/01 19:28:17;;;;;;;20.13;11.53;;;;;;;2.13;93.76;101838.06;3614110;80;32862;-86
2022/12/01 19:33:18;;;;;;;20.93;9.83;;;;;;;2.12;93.33;101843.23;3594417;80;98913;-86
2022/12/01 19:38:19;;;;;;;17.37;8.63;;;;;;;2.12;93.23;101843.77;3619101;80;33168;-87
2022/12/01 19:43:19;;;;;;;17.70;9.33;;;;;;;2.10;92.97;101838.65;3609633;80;98757;-87
2022/12/01 19:48:20;;;;;;;22.50;10.67;;;;;;;2.09;93.12;101830.21;3640281;80;32658;-87
2022/12/01 19:53:21;;;;;;;18.50;9.70;;;;;;;2.13;93.37;101837.27;3635410;80;98918;-87
2022/12/01 19:58:24;;;;;;;28.60;12.50;;;;;;;2.13;93.52;101839.98;3651515;80;30870;-86
2022/12/01 20:03:24;;;;;;;30.43;13.10;;;;;;;2.13;93.32;101838.06;3635601;80;99074;-87
2022/12/01 20:08:25;;;;;;;30.90;14.00;;;;;;;2.14;93.46;101834.80;3648943;80;31663;-86
2022/12/01 20:13:30;;;;;;;27.40;13.43;;;;;;;2.15;93.31;101839.13;3638448;80;98777;-84
2022/12/01 20:18:31;;;;;;;25.60;13.78;;;;;;;2.14;93.32;101834.23;3626801;80;32610;-85
2022/12/01 20:23:33;;;;;;;23.98;12.60;;;;;;;2.17;93.71;101835.04;3624291;80;98911;-87
2022/12/01 20:28:35;;;;;;;23.07;10.15;;;;;;;2.15;93.40;101833.17;3636621;80;32673;-85
2022/12/01 20:33:37;;;;;;;17.77;9.73;;;;;;;2.15;93.49;101837.24;3629285;80;99013;-86
2022/12/01 20:38:38;;;;;;;22.25;11.55;;;;;;;2.15;93.56;101839.95;3629046;81;32687;-86
2022/12/01 20:43:39;;;;;;;18.97;9.67;;;;;;;2.14;93.50;101830.73;3626961;81;98804;-85
2022/12/01 20:48:41;;;;;;;21.70;10.30;;;;;;;2.10;93.24;101829.14;3631187;81;32975;-85
2022/12/01 20:53:42;;;;;;;22.93;11.60;;;;;;;2.10;93.36;101822.89;3624991;81;99184;-84
2022/12/01 20:58:44;;;;;;;20.50;10.00;;;;;;;2.12;93.74;101819.33;3617046;81;31656;-85
2022/12/01 21:03:45;;;;;;;22.52;11.28;;;;;;;2.12;93.72;101813.89;3621150;80;99089;-86
2022/12/01 21:08:49;;;;;;;21.13;11.53;;;;;;;2.11;93.36;101815.00;3630052;80;31605;-86
2022/12/01 21:13:49;;;;;;;20.72;10.15;;;;;;;2.11;93.61;101815.82;3624918;81;98959;-84
2022/12/01 21:19:05;;;;;;;24.63;12.20;;;;;;;2.11;93.63;101815.82;3669681;80;31678;-85
2022/12/01 21:24:17;;;;;;;23.73;11.22;;;;;;;2.12;93.70;101812.00;3651201;80;98920;-85
2022/12/01 21:29:23;;;;;;;22.87;10.93;;;;;;;2.13;93.84;101816.33;3686033;80;33696;-86
2022/12/01 21:34:26;;;;;;;24.92;11.38;;;;;;;2.14;93.94;101823.37;3674315;80;99177;-85
2022/12/01 21:39:29;;;;;;;27.02;12.82;;;;;;;2.15;94.00;101829.09;3686265;80;32628;-84
2022/12/01 21:44:35;;;;;;;20.10;11.38;;;;;;;2.16;94.30;101827.99;3680478;80;98851;-86
2022/12/01 21:49:38;;;;;;;;;;;;;;;2.18;94.37;101815.49;3678161;80;25859;-85
2022/12/01 21:54:38;;;;;;;20.52;10.23;;;;;;;2.16;94.23;101819.02;3680307;80;84929;-84
2022/12/01 21:59:39;;;;;;;24.63;11.50;;;;;;;2.16;94.63;101812.23;3681697;80;32274;-86
2022/12/01 22:04:42;;;;;;;21.87;11.37;;;;;;;2.13;94.64;101811.47;3681106;80;98935;-86
2022/12/01 22:09:43;;;;;;;24.53;11.17;;;;;;;2.09;94.21;101813.92;3676621;80;32321;-88
2022/12/01 22:14:43;;;;;;;25.23;12.57;;;;;;;2.05;94.22;101801.22;3674784;80;98913;-87
2022/12/01 22:19:49;;;;;;;21.13;11.03;;;;;;;2.06;94.51;101800.11;3637225;80;31796;-88
2022/12/01 22:24:53;;;;;;;26.55;13.08;;;;;;;2.08;94.40;101796.02;3627750;81;98917;-87
2022/12/01 22:30:12;;;;;;;25.03;13.50;;;;;;;2.07;94.42;101797.69;3616724;81;29128;-87
2022/12/01 22:35:21;;;;;;;28.20;14.30;;;;;;;2.09;94.74;101798.98;3634536;80;98828;-87
2022/12/01 22:40:50;;;;;;;24.32;11.88;;;;;;;2.09;94.60;101792.77;3635289;81;33568;-87
2022/12/01 22:46:22;;;;;;;31.12;15.78;;;;;;;2.07;94.69;101788.97;3628069;81;98771;-84
2022/12/01 22:51:30;;;;;;;28.67;14.03;;;;;;;2.09;94.93;101794.12;3634981;81;33079;-87
2022/12/01 22:56:42;;;;;;;37.65;18.60;;;;;;;2.07;95.09;101794.97;3630772;81;98576;-87
2022/12/01 23:01:56;;;;;;;34.30;16.77;;;;;;;2.07;95.14;101793.61;3635631;80;31111;-87
2022/12/01 23:07:11;;;;;;;36.60;16.97;;;;;;;2.08;95.30;101791.15;3625430;80;98414;-88
2022/12/01 23:12:23;;;;;;;35.83;16.87;;;;;;;2.07;95.36;101789.53;3620331;80;32193;-85
2022/12/01 23:17:28;;;;;;;36.57;18.17;;;;;;;2.06;95.57;101780.56;3630367;79;98749;-86
2022/12/01 23:22:29;;;;;;;35.87;17.40;;;;;;;2.09;95.81;101783.26;3629121;81;28211;-87
2022/12/01 23:27:30;;;;;;;29.77;15.30;;;;;;;2.08;95.84;101779.72;3574058;82;98745;-85